Mountville, South Carolina
Current Conditions -  °F | °C
As of 11:55 AM on Wednesday 22 Oct 2014 (Local Time) from KLUX Reporting Station
Clear Clear  
Wind Chill: 59°   Ceiling: Unl
Heat Index: 59°   Visibility: 10mi
Dew Point: 32°   Wind: 7mph
Humidity: 36%   Direction: 40°NE
Pressure: 30.11"   Gusts: NA
Location:  34.36°N, 81.97°W
Report Text: KLUX 221555Z AUTO 04006KT 10SM CLR 15/00 A3011 RMK AO2
Loading
Personal Weather Stations






























Interactive Weather Map
Tropical Storm Tracking
New forecast layout! Learn more

10-Day Weather Forecast

Advertisements
Track Severe Weather on mobile